Flight Track Log - Related Links

Times and Time Zones

All times are in EDT time to prevent confusion due to time zone crossing. See the LAK145 flight status page for this flight to view local times or setup timezone preferences in your user account.

Time Position Orientation Groundspeed Altitude Reporting Facility
EDT Latitude Longitude Course Direction KTS MPH feet Rate Location/Type
Fri 01:24:14 AM 40.6122 -74.1911 246° West 204 235 4,600  Level New York Center
Fri 01:24:44 AM 40.6167 -74.2333 278° West 229 264 6,800 3,933 Climbing New York TRACON
Fri 01:25:44 AM 40.6167 -74.3167 270° West 244 281 10,500 3,333 Climbing New York TRACON
Fri 01:26:50 AM 40.6000 -74.4167 258° West 268 308 13,800 2,727 Climbing New York TRACON
Fri 01:28:51 AM 40.5308 -74.5944 243° Southwest 284 327 19,000 2,552 Climbing Washington Center
Fri 01:29:00 AM 40.4754 -74.7905 246° West  Level FlightAware Approximate
Fri 01:29:51 AM 40.4611 -74.6561 214° Southwest 303 349 21,500  Level Washington Center
Fri 01:30:52 AM 40.3872 -74.7197 213° Southwest 317 365 23,900 2,350 Climbing Washington Center
Fri 01:31:51 AM 40.3161 -74.7872 216° Southwest 315 362 26,200 2,136 Climbing Washington Center
Fri 01:32:50 AM 40.2453 -74.8556 216° Southwest 318 366 28,100 1,918 Climbing Washington Center
Fri 01:33:53 AM 40.1681 -74.9233 214° Southwest 321 369 30,100 1,884 Climbing Washington Center
Fri 01:34:51 AM 40.0950 -74.9936 216° Southwest 324 373 31,900 1,831 Climbing Washington Center
Fri 01:35:51 AM 40.0214 -75.0594 214° Southwest 323 372 33,700 1,800 Climbing Washington Center
Fri 01:36:51 AM 39.9508 -75.1258 216° Southwest 318 366 35,500 1,650 Climbing Washington Center
Fri 01:37:51 AM 39.8869 -75.1836 215° Southwest 309 356 37,000 1,317 Climbing Washington Center
Fri 01:38:54 AM 39.8192 -75.2444 215° Southwest 302 348 38,200 950 Climbing Washington Center
Fri 01:39:51 AM 39.7500 -75.3078 215° Southwest 302 348 38,900 763 Climbing Washington Center
Fri 01:40:52 AM 39.6778 -75.3708 214° Southwest 314 361 39,700 780 Climbing Washington Center
Fri 01:41:54 AM 39.6067 -75.4369 216° Southwest 316 364 40,500 744 Climbing Washington Center
Fri 01:42:53 AM 39.5344 -75.5006 214° Southwest 316 364 41,200 700 Climbing Washington Center
Fri 01:43:54 AM 39.4650 -75.5650 216° Southwest 310 357 41,900 600 Climbing Washington Center
Fri 01:44:53 AM 39.3928 -75.6267 213° Southwest 312 359 42,400 496 Climbing Washington Center
Fri 01:45:55 AM 39.3231 -75.6908 215° Southwest 310 357 42,900 295 Climbing Washington Center
Fri 01:46:55 AM 39.2500 -75.7544 214° Southwest 313 360 43,000 50 Climbing Washington Center
Fri 01:47:54 AM 39.1744 -75.8217 215° Southwest 329 379 43,000 -50 Level Washington Center
Fri 01:48:55 AM 39.0958 -75.8906 214° Southwest 338 389 42,900  Descending Washington Center
Fri 01:49:54 AM 39.0150 -75.9611 214° Southwest 349 402 43,000 50 Climbing Washington Center
Fri 01:50:55 AM 38.9339 -76.0347 215° Southwest 354 407 43,000  Level Washington Center
Fri 01:51:55 AM 38.8511 -76.1056 214° Southwest 357 411 43,000  Level Washington Center
Fri 01:52:53 AM 38.7592 -76.1867 215° Southwest 358 412 43,000  Level Washington Center
Fri 01:53:55 AM 38.6753 -76.2611 215° Southwest 363 418 43,000  Level Washington Center
Fri 01:54:53 AM 38.5903 -76.3342 214° Southwest 364 419 43,000  Level Washington Center
Fri 01:55:54 AM 38.5050 -76.4081 214° Southwest 368 423 43,000  Level Washington Center
Fri 01:56:55 AM 38.4194 -76.4806 214° Southwest 368 423 43,000  Level Washington Center
Fri 01:57:54 AM 38.3353 -76.5558 215° Southwest 368 423 43,000  Level Washington Center
Fri 01:58:55 AM 38.2586 -76.6186 213° Southwest 369 425 43,000  Level Washington Center
Fri 01:59:57 AM 38.1750 -76.6939 215° Southwest 370 426 43,000  Level Washington Center
Fri 02:00:54 AM 38.0889 -76.7642 213° Southwest 371 427 43,000  Level Washington Center
Fri 02:01:54 AM 38.0039 -76.8394 215° Southwest 372 428 43,000  Level Washington Center
Fri 02:02:57 AM 37.9006 -76.9256 213° Southwest 372 428 43,000  Level Washington Center
Fri 02:03:56 AM 37.8150 -76.9981 214° Southwest 373 429 43,000  Level Washington Center
Fri 02:04:55 AM 37.7300 -77.0708 214° Southwest 373 429 43,000  Level Washington Center
Fri 02:05:55 AM 37.6444 -77.1419 213° Southwest 373 429 43,000  Level Washington Center
Fri 02:06:56 AM 37.5608 -77.2150 215° Southwest 373 429 43,000  Level Washington Center
Fri 02:07:55 AM 37.4750 -77.2850 213° Southwest 373 429 43,000  Level Washington Center
Fri 02:08:56 AM 37.3914 -77.3561 214° Southwest 373 429 43,000  Level Washington Center
Fri 02:09:55 AM 37.3058 -77.4261 213° Southwest 372 428 43,000  Level Washington Center
Fri 02:10:58 AM 37.2208 -77.4961 213° Southwest 372 428 43,000  Level Washington Center
Fri 02:11:56 AM 37.1372 -77.5672 214° Southwest 371 427 43,000  Level Washington Center
Fri 02:12:56 AM 37.0514 -77.6361 213° Southwest 371 427 43,000  Level Washington Center
Fri 02:13:56 AM 36.9661 -77.7069 214° Southwest 371 427 43,000  Level Washington Center
Fri 02:14:57 AM 36.8817 -77.7786 214° Southwest 370 426 43,000  Level Washington Center
Fri 02:15:59 AM 36.7964 -77.8472 213° Southwest 370 426 43,000  Level Washington Center
Fri 02:16:58 AM 36.7106 -77.9156 213° Southwest 370 426 43,000  Level Washington Center
Fri 02:33:10 AM 35.3064 -79.0422 212° Southwest 380 437 43,000  Level Jacksonville Center
Fri 02:34:00 AM 35.2967 -79.0321 212° Southwest  Level FlightAware Approximate
Fri 02:34:10 AM 35.2189 -79.1072 211° Southwest 380 437 43,000  Level Jacksonville Center
Fri 02:35:00 AM 35.2135 -79.0967 212° Southwest  Level FlightAware Approximate
Fri 02:35:10 AM 35.1333 -79.1769 214° Southwest 380 437 43,000  Level Jacksonville Center
Fri 02:36:00 AM 35.1303 -79.1611 212° Southwest  Level FlightAware Approximate
Fri 02:36:10 AM 35.0456 -79.2417 211° Southwest 380 437 43,000  Level Jacksonville Center
Fri 02:37:00 AM 35.0470 -79.2253 212° Southwest  Level FlightAware Approximate
Fri 02:37:10 AM 34.9578 -79.3111 213° Southwest 380 437 43,000  Level Jacksonville Center
Fri 02:38:00 AM 34.9637 -79.2895 212° Southwest  Level FlightAware Approximate
Fri 02:38:10 AM 34.8700 -79.3756 211° Southwest 380 437 43,000  Level Jacksonville Center
Fri 02:39:10 AM 34.7822 -79.4450 213° Southwest 380 437 43,000  Level Jacksonville Center
Fri 02:40:10 AM 34.6944 -79.5142 213° Southwest 380 437 43,000  Level Jacksonville Center
Fri 02:41:10 AM 34.6044 -79.5806 211° Southwest 380 437 43,000  Level Jacksonville Center
Fri 02:42:10 AM 34.5144 -79.6497 212° Southwest 385 443 43,000  Level Jacksonville Center
Fri 02:43:10 AM 34.4225 -79.7186 212° Southwest 385 443 43,000  Level Jacksonville Center
Fri 02:44:10 AM 34.3467 -79.7792 213° Southwest 379 436 43,000 -50 Level Jacksonville Center
Fri 02:45:10 AM 34.2567 -79.8478 212° Southwest 384 442 42,900 -50 Descending Jacksonville Center
Fri 02:46:10 AM 34.1664 -79.9186 213° Southwest 384 442 42,900 33 Level Jacksonville Center
Fri 02:48:10 AM 33.9861 -80.0525 212° Southwest 384 442 43,000  Climbing Jacksonville Center
Fri 02:49:10 AM 33.8978 -80.1228 213° Southwest 384 442 42,900  Descending Jacksonville Center
Fri 02:50:10 AM 33.8075 -80.1856 210° Southwest 384 442 43,000 50 Climbing Jacksonville Center
Fri 02:51:10 AM 33.7211 -80.2533 213° Southwest 384 442 43,000  Level Jacksonville Center
Fri 02:52:10 AM 33.6328 -80.3183 211° Southwest 384 442 43,000  Level Jacksonville Center
Fri 02:53:10 AM 33.5444 -80.3856 212° Southwest 384 442 43,000 -33 Level Jacksonville Center
Fri 02:55:10 AM 33.3656 -80.5200 212° Southwest 384 442 42,900 -33 Descending Jacksonville Center
Fri 02:56:10 AM 33.2667 -80.5922 211° Southwest 384 442 42,900  Level Jacksonville Center
Fri 02:57:10 AM 33.1781 -80.6589 212° Southwest 384 442 42,900 50 Level Jacksonville Center
Fri 02:58:10 AM 33.0894 -80.7206 210° Southwest 384 442 43,000 50 Climbing Jacksonville Center
Fri 02:59:10 AM 33.0008 -80.7847 211° Southwest 384 442 43,000 -50 Level Jacksonville Center
Fri 03:00:10 AM 32.9142 -80.8486 212° Southwest 384 442 42,900 -50 Descending Jacksonville Center
Fri 03:01:10 AM 32.8233 -80.9125 211° Southwest 384 442 42,900  Level Jacksonville Center
Fri 03:02:10 AM 32.7344 -80.9786 212° Southwest 384 442 42,900  Level Jacksonville Center
Fri 03:03:10 AM 32.6478 -81.0422 212° Southwest 376 433 42,900 50 Level Jacksonville Center
Fri 03:04:10 AM 32.5692 -81.1006 212° Southwest 368 423 43,000 50 Climbing Jacksonville Center
Fri 03:05:10 AM 32.4742 -81.1714 212° Southwest 374 430 43,000  Level Jacksonville Center
Fri 03:06:10 AM 32.3811 -81.2344 210° Southwest 380 437 43,000  Level Jacksonville Center
Fri 03:07:10 AM 32.2922 -81.2975 211° Southwest 386 444 43,000 -50 Level Jacksonville Center
Fri 03:08:10 AM 32.2011 -81.3631 211° Southwest 380 437 42,900  Descending Jacksonville Center
Fri 03:09:10 AM 32.1100 -81.4331 213° Southwest 386 444 43,000 50 Climbing Jacksonville Center
Fri 03:10:10 AM 32.0314 -81.4858 210° Southwest 379 436 43,000  Level Jacksonville Center
Fri 03:11:10 AM 31.9319 -81.5558 211° Southwest 380 437 43,000  Level Jacksonville Center
Fri 03:12:10 AM 31.8450 -81.6208 212° Southwest 380 437 43,000  Level Jacksonville Center
Fri 03:13:10 AM 31.7639 -81.6756 210° Southwest 386 444 43,000  Level Jacksonville Center
Fri 03:14:34 AM 31.6417 -81.7650 212° Southwest 384 442 43,000  Level Jacksonville Center
Fri 03:15:34 AM 31.5292 -81.8103 199° South 379 436 43,000  Level Jacksonville Center
Fri 03:16:34 AM 31.4211 -81.8408 194° South 402 463 43,000  Level Jacksonville Center
Fri 03:17:34 AM 31.3147 -81.8736 195° South 402 463 43,000  Level Jacksonville Center
Fri 03:18:34 AM 31.2044 -81.9039 193° South 408 470 43,000  Level Jacksonville Center
Fri 03:19:34 AM 31.0981 -81.9367 195° South 401 461 43,000 -250 Level Jacksonville Center
Fri 03:20:34 AM 30.9875 -81.9597 190° South 401 461 42,500 -900 Descending Jacksonville Center
Fri 03:21:34 AM 30.8750 -81.9728 186° South 406 467 41,200 -1,450 Descending Jacksonville Center
Fri 03:22:34 AM 30.7664 -81.9883 187° South 406 467 39,600 -1,600 Descending Jacksonville Center
Fri 03:23:34 AM 30.6581 -82.0014 186° South 406 467 38,000 -1,500 Descending Jacksonville Center
Fri 03:24:34 AM 30.5453 -82.0144 186° South 406 467 36,600 -1,450 Descending Jacksonville Center
Fri 03:25:34 AM 30.4347 -82.0275 186° South 406 467 35,100 -1,450 Descending Jacksonville Center
Fri 03:26:34 AM 30.3222 -82.0431 187° South 412 474 33,700 -1,400 Descending Jacksonville Center
Fri 03:27:34 AM 30.2117 -82.0608 188° South 400 460 32,300 -1,450 Descending Jacksonville Center
Fri 03:28:34 AM 30.1011 -82.0739 186° South 411 473 30,800 -1,400 Descending Jacksonville Center
Fri 03:29:34 AM 29.9989 -82.0939 190° South 411 473 29,500 -1,350 Descending Jacksonville Center
Fri 03:30:34 AM 29.8883 -82.1067 186° South 411 473 28,100 -1,450 Descending Jacksonville Center
Fri 03:31:34 AM 29.7736 -82.1244 188° South 411 473 26,600 -1,550 Descending Jacksonville Center
Fri 03:32:34 AM 29.6464 -82.1350 184° South 411 473 25,000 -1,550 Descending Jacksonville Center
Fri 03:33:34 AM 29.5294 -82.1528 188° South 411 473 23,500 -1,550 Descending Jacksonville Center
Fri 03:34:34 AM 29.4189 -82.1678 187° South 411 473 21,900 -1,550 Descending Jacksonville Center
Fri 03:35:34 AM 29.3042 -82.1828 187° South 411 473 20,400 -1,550 Descending Jacksonville Center
Fri 03:36:34 AM 29.1936 -82.1981 187° South 411 473 18,800 -1,400 Descending Jacksonville Center
Fri 03:37:34 AM 29.0853 -82.2131 187° South 406 467 17,600 -1,350 Descending Jacksonville Center
Fri 03:38:34 AM 28.9872 -82.2256 186° South 387 445 16,100 -1,350 Descending Jacksonville Center
Fri 03:39:34 AM 28.8994 -82.2333 184° South 368 423 14,900 -1,150 Descending Jacksonville Center
Fri 03:40:34 AM 28.8056 -82.2481 188° South 357 411 13,800 -778 Descending Jacksonville Center
Fri 03:42:16 AM 28.6333 -82.2667 185° South 333 383 12,800 -778 Descending Tampa TRACON
Fri 03:43:16 AM 28.5500 -82.2667 180° South 320 368 11,700 -1,200 Descending Tampa TRACON
Fri 03:44:16 AM 28.4833 -82.3167 213° Southwest 300 345 10,400 -1,450 Descending Tampa TRACON
Fri 03:45:16 AM 28.4000 -82.3500 199° South 284 327 8,800 -1,550 Descending Tampa TRACON
Fri 03:46:16 AM 28.3500 -82.4000 221° Southwest 265 305 7,300 -1,700 Descending Tampa TRACON
Fri 03:47:16 AM 28.2833 -82.4333 204° Southwest 230 265 5,400 -1,900 Descending Tampa TRACON
Fri 03:48:16 AM 28.2333 -82.4667 210° Southwest 232 267 3,500 -1,200 Descending Tampa TRACON
Fri 03:49:16 AM 28.1833 -82.5000 210° Southwest 207 238 3,000 -350 Descending Tampa TRACON
Fri 03:50:16 AM 28.1500 -82.5167 204° Southwest 128 147 2,800 -250 Descending Tampa TRACON
Fri 03:51:16 AM 28.1167 -82.5167 180° South 106 122 2,500 -500 Descending Tampa TRACON
Fri 03:52:16 AM 28.0833 -82.5333 204° Southwest 118 136 1,800 -650 Descending Tampa TRACON
Fri 03:53:16 AM 28.0500 -82.5333 180° South 111 128 1,200 -550 Descending Tampa TRACON
Fri 03:54:16 AM 28.0167 -82.5333 180° South 84 97 700 -500 Descending Tampa TRACON

Login

Don't have an account? Register now (free) for customized features, flight alerts, and more!